createdAt,value
2017-12-20T00:01:01.946Z,0.70
2017-12-20T00:03:29.426Z,0.70
2017-12-20T00:05:56.910Z,0.70
2017-12-20T00:08:25.188Z,0.80
2017-12-20T00:10:53.432Z,0.80
2017-12-20T00:13:21.690Z,0.80
2017-12-20T00:15:49.180Z,0.80
2017-12-20T00:18:16.673Z,0.80
2017-12-20T00:20:44.168Z,0.70
2017-12-20T00:23:11.645Z,0.70
2017-12-20T00:25:39.900Z,0.70
2017-12-20T00:28:07.395Z,0.70
2017-12-20T00:30:34.877Z,0.80
2017-12-20T00:33:03.117Z,0.80
2017-12-20T00:35:30.603Z,0.80
2017-12-20T00:37:58.851Z,0.80
2017-12-20T00:40:26.333Z,0.80
2017-12-20T00:42:54.595Z,0.80
2017-12-20T00:45:22.071Z,0.80
2017-12-20T00:47:50.315Z,0.70
2017-12-20T00:50:17.851Z,0.70
2017-12-20T00:52:45.326Z,0.70
2017-12-20T00:55:12.803Z,0.70
2017-12-20T00:57:41.096Z,0.70
2017-12-20T01:00:09.338Z,0.70
2017-12-20T01:02:36.814Z,0.70
2017-12-20T01:05:04.304Z,0.70
2017-12-20T01:07:31.806Z,0.70
2017-12-20T01:09:59.288Z,0.70
2017-12-20T01:12:26.776Z,0.70
2017-12-20T01:14:55.016Z,0.70
2017-12-20T01:17:24.005Z,0.70
2017-12-20T01:19:51.494Z,0.70
2017-12-20T01:22:19.752Z,0.80
2017-12-20T01:24:47.231Z,0.70
2017-12-20T01:27:15.491Z,0.80
2017-12-20T01:29:42.971Z,0.80
2017-12-20T01:32:11.231Z,0.80
2017-12-20T01:34:39.483Z,0.80
2017-12-20T01:37:06.959Z,0.80
2017-12-20T01:39:34.770Z,0.80
2017-12-20T01:42:02.283Z,0.80
2017-12-20T01:44:29.759Z,0.80
2017-12-20T01:46:58.019Z,0.80
2017-12-20T01:49:26.283Z,0.80
2017-12-20T01:51:55.262Z,0.80
2017-12-20T01:54:22.742Z,0.80
2017-12-20T01:56:50.227Z,0.80
2017-12-20T01:59:18.472Z,0.90
2017-12-20T02:01:45.947Z,0.80
2017-12-20T02:04:14.202Z,0.80
2017-12-20T02:06:43.210Z,0.80
2017-12-20T02:09:11.464Z,0.90
2017-12-20T02:11:38.956Z,0.80
2017-12-20T02:14:07.198Z,0.90
2017-12-20T02:16:34.680Z,0.80
2017-12-20T02:19:02.172Z,0.90
2017-12-20T02:21:29.734Z,0.90
2017-12-20T02:23:57.298Z,0.90
2017-12-20T02:26:24.782Z,0.90
2017-12-20T02:28:52.264Z,0.90
2017-12-20T02:31:19.748Z,0.90
2017-12-20T02:33:48.016Z,0.90
2017-12-20T02:36:16.258Z,0.90
2017-12-20T02:38:43.742Z,0.80
2017-12-20T02:41:11.233Z,0.90
2017-12-20T02:43:41.411Z,0.90
2017-12-20T02:46:08.884Z,0.90
2017-12-20T02:48:37.148Z,0.90
2017-12-20T02:51:04.722Z,0.90
2017-12-20T02:53:32.991Z,0.90
2017-12-20T02:56:01.251Z,1.00
2017-12-20T02:58:29.499Z,1.00
2017-12-20T03:00:56.974Z,0.90
2017-12-20T03:03:24.470Z,1.00
2017-12-20T03:05:52.742Z,1.00
2017-12-20T03:08:20.979Z,1.00
2017-12-20T03:10:48.466Z,0.90
2017-12-20T03:13:15.944Z,1.00
2017-12-20T03:15:44.190Z,0.90
2017-12-20T03:18:12.454Z,0.90
2017-12-20T03:20:39.936Z,0.90
2017-12-20T03:23:07.413Z,1.00
2017-12-20T03:25:35.774Z,1.00
2017-12-20T03:28:03.251Z,1.00
2017-12-20T03:30:31.500Z,1.00
2017-12-20T03:32:59.284Z,1.00
2017-12-20T03:35:27.532Z,1.00
2017-12-20T03:37:56.515Z,1.00
2017-12-20T03:40:24.019Z,1.00
2017-12-20T03:42:52.260Z,1.00
2017-12-20T03:45:20.519Z,1.00
2017-12-20T03:47:48.015Z,1.00
2017-12-20T03:50:16.259Z,1.00
2017-12-20T03:52:43.743Z,1.00
2017-12-20T03:55:12.242Z,1.00
2017-12-20T03:57:40.483Z,1.00
2017-12-20T04:00:07.959Z,1.00
2017-12-20T04:02:35.451Z,1.00
2017-12-20T04:05:02.933Z,1.00
2017-12-20T04:07:30.406Z,1.00
2017-12-20T04:09:57.894Z,1.00
2017-12-20T04:12:26.152Z,1.00
2017-12-20T04:14:53.628Z,1.00
2017-12-20T04:17:21.118Z,1.00
2017-12-20T04:19:48.594Z,1.00
2017-12-20T04:22:16.105Z,1.00
2017-12-20T04:24:44.362Z,1.00
2017-12-20T04:27:13.408Z,1.00
2017-12-20T04:29:42.341Z,1.00
2017-12-20T04:32:09.837Z,1.00
2017-12-20T04:34:38.083Z,1.00
2017-12-20T04:37:05.557Z,1.00
2017-12-20T04:39:33.047Z,1.00
2017-12-20T04:42:00.580Z,1.00
2017-12-20T04:44:28.823Z,1.00
2017-12-20T04:46:56.311Z,1.00
2017-12-20T04:49:23.797Z,1.00
2017-12-20T04:51:51.335Z,1.00
2017-12-20T04:54:19.597Z,1.10
2017-12-20T04:56:47.079Z,1.10
2017-12-20T04:59:15.322Z,1.10
2017-12-20T05:01:43.590Z,1.10
2017-12-20T05:04:11.068Z,1.10
2017-12-20T05:06:38.552Z,1.10
2017-12-20T05:09:06.811Z,1.10
2017-12-20T05:11:35.096Z,1.10
2017-12-20T05:14:03.334Z,1.10
2017-12-20T05:16:30.918Z,1.10
2017-12-20T05:18:58.398Z,1.10
2017-12-20T05:21:25.883Z,1.10
2017-12-20T05:23:53.400Z,1.10
2017-12-20T05:26:21.652Z,1.10
2017-12-20T05:28:49.138Z,1.10
2017-12-20T05:31:16.632Z,1.20
2017-12-20T05:33:44.107Z,1.20
2017-12-20T05:36:11.588Z,1.10
2017-12-20T05:38:39.083Z,1.20
2017-12-20T05:41:07.381Z,1.10
2017-12-20T05:43:34.913Z,1.10
2017-12-20T05:46:03.168Z,1.20
2017-12-20T05:48:30.748Z,1.10
2017-12-20T05:50:58.987Z,1.20
2017-12-20T05:53:26.474Z,1.10
2017-12-20T05:55:54.723Z,1.20
2017-12-20T05:58:22.194Z,1.20
2017-12-20T06:00:49.688Z,1.20
2017-12-20T06:03:17.166Z,1.20
2017-12-20T06:05:44.642Z,1.20
2017-12-20T06:08:12.130Z,1.20
2017-12-20T06:10:40.486Z,1.20
2017-12-20T06:13:07.958Z,1.20
2017-12-20T06:15:35.452Z,1.20
2017-12-20T06:18:03.712Z,1.20
2017-12-20T06:20:31.949Z,1.20
2017-12-20T06:22:59.439Z,1.20
2017-12-20T06:25:26.926Z,1.20
2017-12-20T06:27:54.410Z,1.20
2017-12-20T06:30:21.911Z,1.20
2017-12-20T06:32:49.397Z,1.20
2017-12-20T06:35:16.883Z,1.20
2017-12-20T06:37:44.379Z,1.10
2017-12-20T06:40:11.849Z,1.20
2017-12-20T06:42:40.097Z,1.20
2017-12-20T06:45:07.583Z,1.20
2017-12-20T06:47:35.827Z,1.20
2017-12-20T06:50:03.303Z,1.20
2017-12-20T06:52:30.788Z,1.20
2017-12-20T06:54:59.026Z,1.20
2017-12-20T06:57:26.506Z,1.20
2017-12-20T06:59:53.987Z,1.20
2017-12-20T07:02:21.541Z,1.20
2017-12-20T07:04:49.798Z,1.30
2017-12-20T07:07:17.369Z,1.30
2017-12-20T07:09:45.614Z,1.40
2017-12-20T07:12:13.086Z,1.30
2017-12-20T07:14:40.572Z,1.40
2017-12-20T07:17:08.810Z,1.40
2017-12-20T07:19:37.799Z,1.50
2017-12-20T07:22:05.289Z,1.50
2017-12-20T07:24:33.540Z,1.50
2017-12-20T07:27:01.472Z,1.50
2017-12-20T07:29:28.976Z,1.50
2017-12-20T07:31:56.476Z,1.50
2017-12-20T07:34:24.007Z,1.60
2017-12-20T07:36:52.270Z,1.50
2017-12-20T07:39:19.747Z,1.50
2017-12-20T07:41:48.003Z,1.50
2017-12-20T07:44:17.007Z,1.50
2017-12-20T07:46:44.479Z,1.50
2017-12-20T07:49:12.730Z,1.50
2017-12-20T07:51:40.235Z,1.50
2017-12-20T07:54:07.715Z,1.50
2017-12-20T07:56:35.196Z,1.50
2017-12-20T07:59:02.699Z,1.60
2017-12-20T08:01:30.173Z,1.60
2017-12-20T08:03:57.758Z,1.60
2017-12-20T08:06:25.460Z,1.50
2017-12-20T08:08:54.023Z,1.60
2017-12-20T08:11:22.270Z,1.60
2017-12-20T08:13:49.782Z,1.60
2017-12-20T08:16:18.026Z,1.60
2017-12-20T08:18:45.498Z,1.60
2017-12-20T08:21:12.987Z,1.70
2017-12-20T08:23:40.486Z,1.80
2017-12-20T08:26:07.962Z,1.80
2017-12-20T08:28:35.446Z,1.90
2017-12-20T08:31:03.681Z,1.90
2017-12-20T08:33:31.183Z,1.80
2017-12-20T08:35:59.430Z,1.90
2017-12-20T08:38:27.679Z,1.90
2017-12-20T08:40:55.156Z,1.90
2017-12-20T08:43:22.647Z,1.90
2017-12-20T08:45:50.904Z,2.00
2017-12-20T08:48:19.893Z,2.00
2017-12-20T08:50:47.388Z,2.00
2017-12-20T08:53:15.629Z,2.00
2017-12-20T08:55:43.117Z,2.00
2017-12-20T08:58:11.379Z,2.10
2017-12-20T09:00:38.859Z,2.00
2017-12-20T09:03:07.117Z,2.20
2017-12-20T09:05:34.599Z,2.10
2017-12-20T09:08:02.082Z,2.10
2017-12-20T09:10:29.559Z,2.20
2017-12-20T09:12:57.043Z,2.20
2017-12-20T09:15:24.519Z,2.20
2017-12-20T09:17:52.766Z,2.20
2017-12-20T09:20:20.251Z,2.20
2017-12-20T09:22:48.505Z,2.10
2017-12-20T09:25:15.984Z,2.10
2017-12-20T09:27:44.230Z,2.20
2017-12-20T09:30:12.476Z,2.20
2017-12-20T09:32:39.956Z,2.20
2017-12-20T09:35:07.448Z,2.20
2017-12-20T09:37:35.690Z,2.40
2017-12-20T09:40:03.224Z,2.40
2017-12-20T09:42:30.713Z,2.50
2017-12-20T09:44:58.191Z,2.80
2017-12-20T09:47:25.764Z,2.90
2017-12-20T09:49:54.017Z,2.90
2017-12-20T09:52:23.003Z,2.80
2017-12-20T09:54:50.486Z,2.80
2017-12-20T09:57:18.749Z,2.80
2017-12-20T09:59:46.235Z,2.90
2017-12-20T10:02:14.479Z,3.00
2017-12-20T10:04:42.063Z,3.00
2017-12-20T10:07:10.331Z,3.20
2017-12-20T10:09:37.899Z,3.20
2017-12-20T10:12:06.147Z,3.30
2017-12-20T10:14:33.627Z,3.30
2017-12-20T10:17:01.870Z,3.10
2017-12-20T10:19:29.359Z,3.10
2017-12-20T10:21:57.602Z,3.00
2017-12-20T10:24:25.080Z,3.00
2017-12-20T10:26:52.654Z,3.00
2017-12-20T10:29:20.898Z,3.10
2017-12-20T10:31:48.378Z,3.00
2017-12-20T10:34:15.880Z,3.00
2017-12-20T10:36:43.367Z,3.00
2017-12-20T10:39:10.845Z,3.00
2017-12-20T10:41:39.100Z,2.90
2017-12-20T10:44:06.569Z,2.90
2017-12-20T10:46:34.065Z,2.90
2017-12-20T10:49:02.339Z,3.00
2017-12-20T10:51:30.579Z,3.00
2017-12-20T10:53:58.065Z,3.00
2017-12-20T10:56:26.327Z,3.00
2017-12-20T10:58:53.815Z,3.00
2017-12-20T11:01:22.082Z,2.80
2017-12-20T11:03:49.607Z,2.70
2017-12-20T11:06:17.091Z,2.70
2017-12-20T11:08:45.476Z,2.60
2017-12-20T11:11:13.742Z,2.70
2017-12-20T11:13:41.218Z,2.70
2017-12-20T11:16:09.484Z,2.80
2017-12-20T11:18:37.734Z,2.80
2017-12-20T11:21:05.224Z,2.70
2017-12-20T11:23:32.786Z,2.80
2017-12-20T11:26:01.101Z,2.70
2017-12-20T11:28:29.356Z,2.70
2017-12-20T11:30:56.834Z,2.70
2017-12-20T11:33:24.322Z,2.70
2017-12-20T11:35:51.808Z,2.70
2017-12-20T11:38:20.059Z,2.70
2017-12-20T11:40:47.627Z,2.70
2017-12-20T11:43:15.117Z,2.70
2017-12-20T11:45:43.367Z,2.70
2017-12-20T11:48:10.863Z,2.70
2017-12-20T11:50:38.347Z,2.70
2017-12-20T11:53:05.823Z,2.80
2017-12-20T11:55:33.315Z,2.80
2017-12-20T11:58:01.567Z,2.80
2017-12-20T12:00:29.047Z,2.70
2017-12-20T12:02:57.567Z,2.60
2017-12-20T12:05:25.066Z,2.60
2017-12-20T12:07:52.566Z,2.70
2017-12-20T12:10:20.055Z,2.70
2017-12-20T12:12:47.704Z,2.70
2017-12-20T12:15:15.184Z,2.70
2017-12-20T12:17:42.678Z,2.70
2017-12-20T12:20:10.934Z,2.70
2017-12-20T12:22:38.424Z,2.70
2017-12-20T12:25:06.684Z,2.70
2017-12-20T12:27:34.926Z,2.70
2017-12-20T12:30:02.428Z,2.80
2017-12-20T12:32:30.678Z,2.80
2017-12-20T12:34:58.276Z,2.80
2017-12-20T12:37:26.518Z,2.80
2017-12-20T12:39:54.080Z,2.80
2017-12-20T12:42:21.554Z,2.80
2017-12-20T12:44:49.798Z,2.80
2017-12-20T12:47:17.291Z,2.80
2017-12-20T12:49:45.536Z,2.70
2017-12-20T12:52:13.028Z,2.70
2017-12-20T12:54:41.311Z,2.70
2017-12-20T12:57:09.551Z,2.70
2017-12-20T12:59:37.027Z,2.70
2017-12-20T13:02:04.507Z,2.80
2017-12-20T13:04:32.751Z,3.20
2017-12-20T13:07:00.327Z,3.20
2017-12-20T13:09:28.606Z,3.40
2017-12-20T13:11:56.883Z,3.40
2017-12-20T13:14:25.132Z,3.40
2017-12-20T13:16:52.628Z,3.40
2017-12-20T13:19:20.870Z,3.40
2017-12-20T13:21:48.350Z,3.40
2017-12-20T13:24:15.840Z,3.50
2017-12-20T13:26:43.316Z,3.50
2017-12-20T13:29:10.801Z,3.40
2017-12-20T13:31:39.823Z,3.20
2017-12-20T13:34:08.067Z,3.20
2017-12-20T13:36:35.540Z,3.20
2017-12-20T13:39:03.032Z,3.20
2017-12-20T13:41:30.506Z,3.30
2017-12-20T13:43:57.978Z,3.30
2017-12-20T13:46:25.477Z,3.40
2017-12-20T13:48:52.949Z,3.30
2017-12-20T13:51:21.191Z,3.30
2017-12-20T13:53:48.731Z,3.30
2017-12-20T13:56:16.207Z,3.30
2017-12-20T13:58:43.683Z,3.30
2017-12-20T14:01:11.171Z,3.20
2017-12-20T14:03:39.465Z,3.10
2017-12-20T14:06:06.967Z,3.10
2017-12-20T14:08:35.255Z,3.10
2017-12-20T14:11:02.735Z,3.00
2017-12-20T14:13:30.981Z,3.00
2017-12-20T14:15:58.467Z,3.00
2017-12-20T14:18:26.735Z,3.00
2017-12-20T14:20:54.206Z,3.00
2017-12-20T14:23:22.454Z,2.90
2017-12-20T14:25:49.938Z,2.90
2017-12-20T14:28:18.186Z,2.70
2017-12-20T14:30:46.437Z,2.60
2017-12-20T14:33:13.916Z,2.60
2017-12-20T14:35:41.398Z,2.50
2017-12-20T14:38:09.658Z,2.40
2017-12-20T14:40:37.152Z,2.40
2017-12-20T14:43:04.694Z,2.40
2017-12-20T14:45:32.951Z,2.30
2017-12-20T14:48:00.435Z,2.30
2017-12-20T14:50:27.906Z,2.20
2017-12-20T14:52:55.400Z,2.10
2017-12-20T14:55:22.882Z,2.10
2017-12-20T14:57:51.124Z,2.00
2017-12-20T15:00:19.463Z,2.00
2017-12-20T15:02:47.709Z,1.90
2017-12-20T15:05:15.947Z,1.90
2017-12-20T15:07:44.283Z,1.90
2017-12-20T15:10:12.527Z,1.80
2017-12-20T15:12:40.008Z,1.80
2017-12-20T15:15:07.507Z,1.80
2017-12-20T15:17:34.982Z,1.70
2017-12-20T15:20:02.498Z,1.70
2017-12-20T15:22:30.762Z,1.70
2017-12-20T15:24:58.244Z,1.70
2017-12-20T15:27:25.728Z,1.60
2017-12-20T15:29:53.497Z,1.60
2017-12-20T15:32:20.971Z,1.50
2017-12-20T15:34:48.500Z,1.50
2017-12-20T15:37:15.990Z,1.60
2017-12-20T15:39:43.470Z,1.50
2017-12-20T15:42:10.998Z,1.50
2017-12-20T15:44:39.327Z,1.50
2017-12-20T15:47:07.572Z,1.50
2017-12-20T15:49:35.072Z,1.50
2017-12-20T15:52:02.566Z,1.50
2017-12-20T15:54:30.051Z,1.50
2017-12-20T15:56:59.039Z,1.50
2017-12-20T15:59:28.059Z,1.50
2017-12-20T16:01:56.303Z,1.50
2017-12-20T16:04:23.787Z,1.50
2017-12-20T16:06:52.401Z,1.50
2017-12-20T16:09:19.874Z,1.50
2017-12-20T16:11:47.351Z,1.50
2017-12-20T16:14:14.847Z,1.50
2017-12-20T16:16:42.327Z,1.50
2017-12-20T16:19:09.823Z,1.60
2017-12-20T16:21:37.322Z,1.60
2017-12-20T16:24:05.577Z,1.60
2017-12-20T16:26:34.570Z,1.50
2017-12-20T16:29:03.574Z,1.50
2017-12-20T16:31:31.143Z,1.60
2017-12-20T16:33:59.428Z,1.60
2017-12-20T16:36:27.690Z,1.60
2017-12-20T16:38:55.270Z,1.50
2017-12-20T16:41:23.520Z,1.60
2017-12-20T16:43:51.116Z,1.60
2017-12-20T16:46:19.374Z,1.60
2017-12-20T16:48:48.442Z,1.60
2017-12-20T16:51:15.932Z,1.60
2017-12-20T16:53:44.183Z,1.60
2017-12-20T16:56:11.657Z,1.60
2017-12-20T16:58:39.913Z,1.60
2017-12-20T17:01:07.387Z,1.60
2017-12-20T17:03:34.867Z,1.60
2017-12-20T17:06:03.123Z,1.60
2017-12-20T17:08:30.609Z,1.60
2017-12-20T17:10:58.091Z,1.60
2017-12-20T17:13:25.763Z,1.60
2017-12-20T17:15:53.230Z,1.60
2017-12-20T17:18:20.727Z,1.60
2017-12-20T17:20:48.987Z,1.60
2017-12-20T17:23:17.307Z,1.60
2017-12-20T17:25:44.778Z,1.70
2017-12-20T17:28:12.292Z,1.70
2017-12-20T17:30:39.771Z,1.80
2017-12-20T17:33:08.020Z,1.70
2017-12-20T17:35:35.507Z,1.70
2017-12-20T17:38:02.978Z,1.70
2017-12-20T17:40:30.460Z,1.70
2017-12-20T17:42:57.966Z,1.60
2017-12-20T17:45:26.212Z,1.60
2017-12-20T17:47:53.688Z,1.60
2017-12-20T17:50:21.181Z,1.60
2017-12-20T17:52:48.660Z,1.60
2017-12-20T17:55:16.136Z,1.50
2017-12-20T17:57:44.375Z,1.50
2017-12-20T18:00:11.859Z,1.50
2017-12-20T18:02:39.343Z,1.50
2017-12-20T18:05:06.835Z,1.50
2017-12-20T18:07:34.321Z,1.50
2017-12-20T18:10:01.795Z,1.50
2017-12-20T18:12:29.292Z,1.50
2017-12-20T18:14:57.542Z,1.50
2017-12-20T18:17:25.016Z,1.50
2017-12-20T18:19:52.511Z,1.50
2017-12-20T18:22:19.983Z,1.50
2017-12-20T18:24:47.466Z,1.50
2017-12-20T18:27:14.963Z,1.50
2017-12-20T18:29:43.211Z,1.50
2017-12-20T18:32:10.831Z,1.50
2017-12-20T18:34:38.320Z,1.50
2017-12-20T18:37:05.800Z,1.50
2017-12-20T18:39:33.283Z,1.50
2017-12-20T18:42:01.547Z,1.50
2017-12-20T18:44:29.808Z,1.50
2017-12-20T18:46:57.301Z,1.50
2017-12-20T18:49:25.554Z,1.40
2017-12-20T18:51:53.890Z,1.40
2017-12-20T18:54:21.376Z,1.40
2017-12-20T18:56:48.883Z,1.40
2017-12-20T18:59:16.372Z,1.50
2017-12-20T19:01:43.851Z,1.50
2017-12-20T19:04:11.335Z,1.40
2017-12-20T19:06:39.009Z,1.50
2017-12-20T19:09:06.531Z,1.50
2017-12-20T19:11:34.802Z,1.60
2017-12-20T19:14:02.283Z,1.50
2017-12-20T19:16:30.766Z,1.50
2017-12-20T19:18:59.029Z,1.60
2017-12-20T19:21:26.507Z,1.50
2017-12-20T19:23:54.755Z,1.50
2017-12-20T19:26:23.017Z,1.50
2017-12-20T19:28:50.522Z,1.50
2017-12-20T19:31:18.771Z,1.50
2017-12-20T19:33:46.280Z,1.50
2017-12-20T19:36:13.789Z,1.50
2017-12-20T19:38:41.302Z,1.50
2017-12-20T19:41:08.800Z,1.50
2017-12-20T19:43:36.282Z,1.50
2017-12-20T19:46:04.530Z,1.50
2017-12-20T19:48:32.024Z,1.50
2017-12-20T19:51:00.294Z,1.40
2017-12-20T19:53:28.606Z,1.40
2017-12-20T19:55:56.108Z,1.40
2017-12-20T19:58:24.411Z,1.40
2017-12-20T20:00:52.663Z,1.40
2017-12-20T20:03:20.162Z,1.40
2017-12-20T20:05:47.643Z,1.40
2017-12-20T20:08:15.179Z,1.40
2017-12-20T20:10:42.677Z,1.40
2017-12-20T20:13:10.201Z,1.50
2017-12-20T20:15:38.380Z,1.50
2017-12-20T20:18:05.912Z,1.50
2017-12-20T20:20:34.184Z,1.40
2017-12-20T20:23:02.447Z,1.40
2017-12-20T20:25:30.179Z,1.40
2017-12-20T20:27:57.660Z,1.40
2017-12-20T20:30:25.153Z,1.40
2017-12-20T20:32:53.411Z,1.40
2017-12-20T20:35:21.662Z,1.40
2017-12-20T20:37:49.150Z,1.40
2017-12-20T20:40:17.628Z,1.40
2017-12-20T20:42:45.910Z,1.40
2017-12-20T20:45:14.295Z,1.40
2017-12-20T20:47:42.554Z,1.40
2017-12-20T20:50:10.052Z,1.40
2017-12-20T20:52:37.588Z,1.40
2017-12-20T20:55:05.856Z,1.40
2017-12-20T20:57:34.107Z,1.40
2017-12-20T21:00:02.474Z,1.40
2017-12-20T21:02:29.984Z,1.40
2017-12-20T21:04:58.321Z,1.50
2017-12-20T21:07:25.803Z,1.50
2017-12-20T21:09:54.071Z,1.50
2017-12-20T21:12:21.551Z,1.50
2017-12-20T21:14:49.808Z,1.50
2017-12-20T21:17:17.319Z,1.50
2017-12-20T21:19:44.807Z,1.50
2017-12-20T21:22:12.285Z,1.50
2017-12-20T21:24:39.798Z,1.50
2017-12-20T21:27:07.279Z,1.50
2017-12-20T21:29:34.791Z,1.50
2017-12-20T21:32:02.279Z,1.50
2017-12-20T21:34:29.750Z,1.50
2017-12-20T21:36:57.234Z,1.50
2017-12-20T21:39:25.486Z,1.50
2017-12-20T21:41:52.968Z,1.50
2017-12-20T21:44:21.216Z,1.50
2017-12-20T21:46:48.717Z,1.50
2017-12-20T21:49:17.056Z,1.50
2017-12-20T21:51:44.530Z,1.50
2017-12-20T21:54:12.032Z,1.50
2017-12-20T21:59:14.282Z,1.50
2017-12-20T22:01:41.765Z,1.50
2017-12-20T22:04:09.248Z,1.50
2017-12-20T22:06:36.759Z,1.50
2017-12-20T22:09:04.235Z,1.50
2017-12-20T22:11:32.479Z,1.50
2017-12-20T22:14:01.470Z,1.50
2017-12-20T22:16:30.451Z,1.40
2017-12-20T22:18:57.935Z,1.50
2017-12-20T22:21:25.459Z,1.50
2017-12-20T22:23:52.931Z,1.40
2017-12-20T22:26:20.421Z,1.40
2017-12-20T22:28:48.940Z,1.40
2017-12-20T22:31:16.414Z,1.40
2017-12-20T22:33:43.886Z,1.30
2017-12-20T22:36:11.378Z,1.30
2017-12-20T22:38:39.684Z,1.40
2017-12-20T22:41:07.158Z,1.30
2017-12-20T22:43:34.660Z,1.40
2017-12-20T22:46:02.146Z,1.40
2017-12-20T22:48:29.623Z,1.40
2017-12-20T22:50:57.881Z,1.50
2017-12-20T22:53:25.362Z,1.50
2017-12-20T22:55:52.839Z,1.50
2017-12-20T22:58:20.382Z,1.50
2017-12-20T23:00:47.999Z,1.40
2017-12-20T23:03:16.240Z,1.40
2017-12-20T23:05:43.728Z,1.40
2017-12-20T23:08:11.203Z,1.40
2017-12-20T23:10:39.442Z,1.40
2017-12-20T23:13:07.703Z,1.40
2017-12-20T23:15:35.179Z,1.40
2017-12-20T23:18:03.416Z,1.40
2017-12-20T23:20:30.932Z,1.50
2017-12-20T23:22:58.407Z,1.50
2017-12-20T23:25:25.890Z,1.50
2017-12-20T23:27:53.383Z,1.50
2017-12-20T23:30:20.856Z,1.50
2017-12-20T23:32:48.334Z,1.50
2017-12-20T23:35:16.598Z,1.50
2017-12-20T23:37:44.840Z,1.50
2017-12-20T23:40:12.318Z,1.50
2017-12-20T23:42:39.838Z,1.50
2017-12-20T23:45:07.314Z,1.50
2017-12-20T23:47:34.802Z,1.60
2017-12-20T23:50:02.308Z,1.60
2017-12-20T23:52:29.778Z,1.60
2017-12-20T23:54:57.264Z,1.60
2017-12-20T23:57:24.747Z,1.60
2017-12-20T23:59:52.986Z,1.50
